createdAt,value
2022-11-27T00:02:09.785Z,4114.1
2022-11-27T00:07:54.436Z,4114.5
2022-11-27T00:13:56.459Z,4113
2022-11-27T00:19:31.667Z,4111.6
2022-11-27T00:25:51.234Z,4115
2022-11-27T00:31:29.541Z,4115.3
2022-11-27T00:37:25.437Z,4117
2022-11-27T00:43:03.981Z,4110.5
2022-11-27T00:49:18.139Z,4108.6
2022-11-27T00:54:50.644Z,4109.6
2022-11-27T01:00:27.995Z,4109.4
2022-11-27T01:06:27.552Z,4112.6
2022-11-27T01:12:03.209Z,4108.1
2022-11-27T01:17:53.415Z,4105.9
2022-11-27T01:23:28.611Z,4108.9
2022-11-27T01:29:25.348Z,4109.4
2022-11-27T01:35:06.254Z,4108.4
2022-11-27T01:41:29.005Z,4105.4
2022-11-27T01:47:26.318Z,4101.6
2022-11-27T01:53:13.937Z,4105.6
2022-11-27T01:58:57.017Z,4106.4
2022-11-27T02:04:34.297Z,4104.3
2022-11-27T02:10:11.900Z,4102.2
2022-11-27T02:16:00.712Z,4102.9
2022-11-27T02:21:36.064Z,4104.6
2022-11-27T02:27:16.599Z,4102.4
2022-11-27T02:32:52.718Z,4105.3
2022-11-27T02:38:30.472Z,4101.7
2022-11-27T02:44:26.040Z,4101.9
2022-11-27T02:50:05.635Z,4102.7
2022-11-27T02:55:54.250Z,4104.3
2022-11-27T03:01:32.835Z,4102.1
2022-11-27T03:07:10.550Z,4103.9
2022-11-27T03:12:45.791Z,4102.4
2022-11-27T03:18:21.950Z,4102.4
2022-11-27T03:23:59.700Z,4099.6
2022-11-27T03:29:36.132Z,4101.6
2022-11-27T03:35:12.651Z,4099.9
2022-11-27T03:40:50.709Z,4100.1
2022-11-27T03:46:49.144Z,4097.7
2022-11-27T03:52:27.454Z,4102.1
2022-11-27T03:58:07.796Z,4098.9
2022-11-27T04:04:01.682Z,4099.1
2022-11-27T04:09:52.045Z,4097.9
2022-11-27T04:15:29.379Z,4097.6
2022-11-27T04:21:04.319Z,4100.4
2022-11-27T04:26:41.890Z,4097
2022-11-27T04:32:22.461Z,4096.5
2022-11-27T04:37:57.426Z,4097.2
2022-11-27T04:43:39.363Z,4098.4
2022-11-27T04:49:36.262Z,4093.4
2022-11-27T04:55:11.449Z,4095.9
2022-11-27T05:00:48.351Z,4096.2
2022-11-27T05:06:26.463Z,4097.2
2022-11-27T05:12:01.944Z,4094.7
2022-11-27T05:17:55.267Z,4093.9
2022-11-27T05:23:53.425Z,4096
2022-11-27T05:29:40.626Z,4094
2022-11-27T05:36:19.064Z,4092.5
2022-11-27T05:41:55.641Z,4093.4
2022-11-27T05:47:52.511Z,4089.8
2022-11-27T05:53:26.171Z,4094.2
2022-11-27T05:59:06.107Z,4092
2022-11-27T06:04:43.432Z,4094.7
2022-11-27T06:10:23.320Z,4091
2022-11-27T06:16:00.553Z,4089.5
2022-11-27T06:21:44.751Z,4087.5
2022-11-27T06:27:21.989Z,4090.7
2022-11-27T06:33:07.541Z,4090.2
2022-11-27T06:38:43.460Z,4090
2022-11-27T06:44:39.381Z,4087.3
2022-11-27T06:50:24.473Z,4088.2
2022-11-27T06:56:00.733Z,4089
2022-11-27T07:01:38.572Z,4089.7
2022-11-27T07:07:22.132Z,4088.7
2022-11-27T07:12:57.330Z,4089.5
2022-11-27T07:18:39.824Z,4085.7
2022-11-27T07:24:15.696Z,4088.2
2022-11-27T07:30:47.156Z,4097.7
2022-11-27T07:36:24.037Z,4100.1
2022-11-27T07:42:40.152Z,4102.6
2022-11-27T07:48:38.143Z,4127
2022-11-27T07:54:11.477Z,4141.9
2022-11-27T07:59:55.535Z,4176.8
2022-11-27T08:05:42.468Z,4143.4
2022-11-27T08:11:39.498Z,4167.9
2022-11-27T08:17:15.783Z,4155.3
2022-11-27T08:22:51.779Z,4161.7
2022-11-27T08:28:27.903Z,4168.7
2022-11-27T08:34:03.423Z,4189.5
2022-11-27T08:39:38.467Z,4191.5
2022-11-27T08:45:20.317Z,4184.1
2022-11-27T08:50:56.853Z,4189.7
2022-11-27T08:56:35.031Z,4170.4
2022-11-27T09:02:11.965Z,4179
2022-11-27T09:07:48.993Z,4161.4
2022-11-27T09:13:24.124Z,4179.3
2022-11-27T09:19:00.525Z,4180.6
2022-11-27T09:24:37.866Z,4172.3
2022-11-27T09:30:19.189Z,4172.3
2022-11-27T09:35:54.915Z,4183.3
2022-11-27T09:41:30.990Z,4190
2022-11-27T09:47:08.554Z,4203.2
2022-11-27T09:52:54.541Z,4201.2
2022-11-27T09:58:42.645Z,4194.9
2022-11-27T10:04:18.867Z,4179.5
2022-11-27T10:09:57.812Z,4189.5
2022-11-27T10:15:34.202Z,4204.8
2022-11-27T10:21:13.068Z,4195.7
2022-11-27T10:26:56.024Z,4189.2
2022-11-27T10:33:11.377Z,4196.2
2022-11-27T10:39:03.563Z,4190.5
2022-11-27T10:44:52.613Z,4201.1
2022-11-27T10:50:42.393Z,4205.4
2022-11-27T10:56:18.324Z,4196.5
2022-11-27T11:01:54.762Z,4196.4
2022-11-27T11:07:31.628Z,4187.8
2022-11-27T11:13:11.700Z,4186.8
2022-11-27T11:18:51.235Z,4200.6
2022-11-27T11:24:29.250Z,4214.8
2022-11-27T11:30:05.569Z,4190.3
2022-11-27T11:35:41.362Z,4197.4
2022-11-27T11:41:23.033Z,4200.7
2022-11-27T11:47:16.501Z,4209.4
2022-11-27T11:53:21.123Z,4203.9
2022-11-27T11:59:00.744Z,4204.2
2022-11-27T12:05:08.497Z,4209.3
2022-11-27T12:10:44.179Z,4205.6
2022-11-27T12:16:20.146Z,4213
2022-11-27T12:21:56.542Z,4212
2022-11-27T12:27:32.414Z,4197.4
2022-11-27T12:33:07.996Z,4193
2022-11-27T12:38:43.383Z,4194.4
2022-11-27T12:44:18.821Z,4204.9
2022-11-27T12:49:54.373Z,4197.5
2022-11-27T12:55:32.093Z,4192.2
2022-11-27T13:01:29.290Z,4211.3
2022-11-27T13:07:11.182Z,4201.1
2022-11-27T13:12:49.582Z,4200.7
2022-11-27T13:19:10.984Z,4212.6
2022-11-27T13:25:01.115Z,4199.6
2022-11-27T13:30:47.652Z,4218.2
2022-11-27T13:36:24.278Z,4207.8
2022-11-27T13:42:00.241Z,4201.9
2022-11-27T13:47:40.124Z,4216.1
2022-11-27T13:53:15.636Z,4207.1
2022-11-27T13:58:55.535Z,4217.6
2022-11-27T14:04:35.961Z,4206.1
2022-11-27T14:10:23.751Z,4204.1
2022-11-27T14:16:00.170Z,4202.6
2022-11-27T14:21:41.913Z,4211.5
2022-11-27T14:27:23.108Z,4211.6
2022-11-27T14:33:01.022Z,4208.3
2022-11-27T14:38:38.396Z,4203.1
2022-11-27T14:44:17.638Z,4202.7
2022-11-27T14:50:00.896Z,4218.2
2022-11-27T14:55:38.401Z,4218.3
2022-11-27T15:01:17.953Z,4211
2022-11-27T15:07:11.212Z,4208.8
2022-11-27T15:12:51.159Z,4201.2
2022-11-27T15:18:27.731Z,4205.4
2022-11-27T15:24:03.134Z,4207.6
2022-11-27T15:29:40.790Z,4199.9
2022-11-27T15:35:17.518Z,4195.4
2022-11-27T15:41:03.859Z,4190.3
2022-11-27T15:46:43.139Z,4193.5
2022-11-27T15:52:42.436Z,4190
2022-11-27T15:58:25.656Z,4187.5
2022-11-27T16:04:01.967Z,4188
2022-11-27T16:09:37.762Z,4181.6
2022-11-27T16:15:15.785Z,4181.8
2022-11-27T16:21:02.632Z,4176.8
2022-11-27T16:26:59.640Z,4177.8
2022-11-27T16:32:35.695Z,4173.6
2022-11-27T16:38:11.854Z,4177.5
2022-11-27T16:43:54.949Z,4177.1
2022-11-27T16:49:52.130Z,4169.4
2022-11-27T16:55:34.069Z,4175.4
2022-11-27T17:01:17.140Z,4175.1
2022-11-27T17:06:57.486Z,4174.8
2022-11-27T17:12:39.348Z,4171.8
2022-11-27T17:18:33.121Z,4172.9
2022-11-27T17:24:20.708Z,4173.4
2022-11-27T17:29:56.313Z,4172.1
2022-11-27T17:35:36.543Z,4171.8
2022-11-27T17:41:16.119Z,4172.1
2022-11-27T17:46:52.244Z,4171.4
2022-11-27T17:52:30.204Z,4172.4
2022-11-27T17:58:05.612Z,4170.2
2022-11-27T18:03:41.461Z,4168.4
2022-11-27T18:09:17.527Z,4171.6
2022-11-27T18:15:02.751Z,4170.4
2022-11-27T18:20:38.705Z,4168.4
2022-11-27T18:26:14.335Z,4167.7
2022-11-27T18:31:50.415Z,4166.6
2022-11-27T18:37:25.930Z,4165.9
2022-11-27T18:43:01.681Z,4165.7
2022-11-27T18:48:59.015Z,4164.7
2022-11-27T18:54:38.316Z,4169.2
2022-11-27T19:00:14.597Z,4166.4
2022-11-27T19:05:49.699Z,4169.2
2022-11-27T19:11:26.841Z,4165.6
2022-11-27T19:17:33.245Z,4164.6
2022-11-27T19:23:09.900Z,4165.2
2022-11-27T19:28:51.419Z,4163.9
2022-11-27T19:34:39.548Z,4166.4
2022-11-27T19:40:19.047Z,4163.5
2022-11-27T19:45:55.357Z,4162.4
2022-11-27T19:51:47.328Z,4163
2022-11-27T19:58:10.192Z,4161.7
2022-11-27T20:03:46.153Z,4161.4
2022-11-27T20:09:21.866Z,4162.5
2022-11-27T20:14:57.885Z,4160.4
2022-11-27T20:20:36.717Z,4161.5
2022-11-27T20:26:12.264Z,4159.9
2022-11-27T20:31:49.265Z,4157.4
2022-11-27T20:37:25.025Z,4160.7
2022-11-27T20:43:08.791Z,4159.9
2022-11-27T20:49:06.446Z,4155.5
2022-11-27T20:54:42.360Z,4157.7
2022-11-27T21:00:23.658Z,4157.9
2022-11-27T21:06:08.525Z,4159.7
2022-11-27T21:12:17.654Z,4156.7
2022-11-27T21:17:56.176Z,4154.7
2022-11-27T21:23:33.351Z,4159.7
2022-11-27T21:29:12.550Z,4158
2022-11-27T21:34:56.319Z,4154.7
2022-11-27T21:40:33.232Z,4156
2022-11-27T21:46:30.848Z,4152.3
2022-11-27T21:52:03.748Z,4153.3
2022-11-27T21:57:39.721Z,4154
2022-11-27T22:03:15.390Z,4155
2022-11-27T22:08:51.229Z,4158
2022-11-27T22:14:33.479Z,4154.7
2022-11-27T22:20:09.152Z,4156.2
2022-11-27T22:25:51.995Z,4152.8
2022-11-27T22:31:31.793Z,4152.5
2022-11-27T22:37:07.437Z,4150.3
2022-11-27T22:42:50.931Z,4153.5
2022-11-27T22:48:49.102Z,4149.8
2022-11-27T22:54:22.479Z,4154.2
2022-11-27T22:59:57.676Z,4151.5
2022-11-27T23:05:33.990Z,4152.3
2022-11-27T23:11:11.099Z,4150.5
2022-11-27T23:16:48.596Z,4150.3
2022-11-27T23:22:24.982Z,4151.5
2022-11-27T23:28:00.869Z,4153.3
2022-11-27T23:33:36.293Z,4150
2022-11-27T23:39:12.616Z,4150.1
2022-11-27T23:44:51.456Z,4150.1
2022-11-27T23:50:26.694Z,4150
2022-11-27T23:56:09.477Z,4149.6
